Nearby METAR Reports

 

KOFF - Offutt Afb/Belle, Nebraska, USA
Distance from station: SE 6mi, 10km
Updated: 09/21/2018 1:11pm
NOT Current
Clear
Clear
 Wind from NW
Wind: NW 15 mph , 24 km/h, Gust: 26 mph , 43 km/h
Temperature: 63°F , 17°C
Dew Point: 46°F , 8°C
Humidity: 56%
Barometer: 30.23 inHg , 1023.7 hPa
Clouds: Clear
Visibility: 10 miles , 16 km
2018/09/21 18:11 KOFF 211811Z AUTO 32013G23KT 10SM CLR 17/08 A3023 RMK AO2 WSHFT 01 SLP238 $
KMLE - Omaha/Millard, Nebraska, USA
Distance from station: W 7mi, 11km
Updated: 09/21/2018 2:35pm
Clear
Clear
 Wind from NNE
Wind: NNE 7 mph , 11 km/h, Gust: 16 mph , 26 km/h
Temperature: 64°F , 18°C
Dew Point: 46°F , 8°C
Humidity: 52%
Barometer: 30.26 inHg , 1024.7 hPa
Clouds: Clear
Visibility: 10 miles , 16 km
2018/09/21 19:35 KMLE 211935Z AUTO 02006G14KT 10SM CLR 18/08 A3026 RMK AO2 T01750080
 
KOMA - Omaha/Eppley, Nebraska, USA
Distance from station: NNE 10mi, 15km
Updated: 09/21/2018 1:52pm
Mostly cloudy
Mostly cloudy
 Wind from NNW
Wind: NNW 17 mph , 28 km/h, Gust: 31 mph , 50 km/h
Temperature: 63°F , 17°C
Dew Point: 45°F , 7°C
Humidity: 52%
Barometer: 30.24 inHg , 1024 hPa
Clouds: Mostly cloudy
Visibility: 10 miles , 16 km
Cloud details: Partly cloudy 3000 ft
Mostly cloudy 12000 ft
2018/09/21 18:52 KOMA 211852Z 34015G27KT 10SM SCT030 BKN120 17/07 A3024 RMK AO2 PK WND 34028/1810 SLP237 T01720072
KCBF - Council Bluffs, Iowa, USA
Distance from station: ENE 12mi, 20km
Updated: 09/21/2018 2:35pm
Few Clouds
Few Clouds
 Wind from N
Wind: N 12 mph , 19 km/h, Gust: 22 mph , 35 km/h
Temperature: 63°F , 17°C
Dew Point: 46°F , 8°C
Humidity: 56%
Barometer: 30.24 inHg , 1024 hPa
Clouds: Few Clouds
Visibility: 10 miles , 16 km
Cloud details: Few Clouds 3600 ft
2018/09/21 19:35 KCBF 211935Z AUTO 36010G19KT 10SM FEW036 17/08 A3024 RMK AO2
 
KBTA - Blair Muni, Nebraska, USA
Distance from station: NNW 17mi, 27km
Updated: 09/21/2018 2:35pm
Partly cloudy
Partly cloudy
 Wind from N
Wind: N 15 mph , 24 km/h, Gust: 25 mph , 41 km/h
Temperature: 63°F , 17°C
Dew Point: 46°F , 8°C
Humidity: 56%
Barometer: 30.25 inHg , 1024.4 hPa
Clouds: Partly cloudy
Visibility: 10 miles , 16 km
Cloud details: Partly cloudy 3500 ft
2018/09/21 19:35 KBTA 211935Z AUTO 36013G22KT 10SM SCT035 17/08 A3025 RMK AO2 T01660083
KPMV - Plattsmouth Muni, Nebraska, USA
Distance from station: SSE 17mi, 28km
Updated: 09/21/2018 2:35pm
Clear
Clear
 Wind from N
Wind: N 10 mph , 17 km/h
Temperature: 64°F , 18°C
Dew Point: 46°F , 8°C
Humidity: 52%
Barometer: 30.24 inHg , 1024 hPa
Clouds: Clear
Visibility: 10 miles , 16 km
2018/09/21 19:35 KPMV 211935Z AUTO 35009KT 10SM CLR 18/08 A3024 RMK AO2 T01750084
 
KAHQ - Wahoo, Nebraska, USA
Distance from station: W 32mi, 52km
Updated: 09/21/2018 2:35pm
Clear
Clear
 Wind from NNW
Wind: NNW 13 mph , 20 km/h, Gust: 25 mph , 41 km/h
Temperature: 63°F , 17°C
Dew Point: 45°F , 7°C
Humidity: 52%
Barometer: 30.27 inHg , 1025.1 hPa
Clouds: Clear
Visibility: 10 miles , 16 km
2018/09/21 19:35 KAHQ 211935Z AUTO 34011G22KT 10SM CLR 17/07 A3027 RMK AO2 T01740066
KFET - Fremont Muni Arp, Nebraska, USA
Distance from station: WNW 33mi, 53km
Updated: 09/21/2018 2:35pm
Partly cloudy
Partly cloudy
 Wind from NNW
Wind: NNW 12 mph , 19 km/h, Gust: 23 mph , 37 km/h
Temperature: 64°F , 18°C
Dew Point: 45°F , 7°C
Humidity: 49%
Barometer: 30.27 inHg , 1025.1 hPa
Clouds: Partly cloudy
Visibility: 10 miles , 16 km
Cloud details: Partly cloudy 4000 ft
2018/09/21 19:35 KFET 211935Z AUTO 33010G20KT 10SM SCT040 18/07 A3027 RMK AO2 T01750065
 
KRDK - Red Oak, Iowa, USA
Distance from station: ESE 39mi, 63km
Updated: 09/21/2018 2:35pm
Partly cloudy
Partly cloudy
 Wind from NNW
Wind: NNW 15 mph , 24 km/h, Gust: 23 mph , 37 km/h
Temperature: 64°F , 18°C
Dew Point: 46°F , 8°C
Humidity: 52%
Barometer: 30.22 inHg , 1023.4 hPa
Clouds: Partly cloudy
Visibility: 10 miles , 16 km
Cloud details: Partly cloudy 4300 ft
2018/09/21 19:35 KRDK 211935Z AUTO 33013G20KT 300V360 10SM SCT043 18/08 A3022 RMK AO2
KTQE - Tekamah, Nebraska, USA
Distance from station: NNW 41mi, 66km
Updated: 09/21/2018 1:54pm
Few Clouds
Few Clouds
 Wind from NNW
Wind: NNW 15 mph , 24 km/h, Gust: 29 mph , 46 km/h
Temperature: 61°F , 16°C
Dew Point: 46°F , 8°C
Humidity: 59%
Barometer: 30.25 inHg , 1024.4 hPa
Clouds: Few Clouds
Visibility: 10 miles , 16 km
Cloud details: Few Clouds 3600 ft
2018/09/21 18:54 KTQE 211854Z AUTO 34013G25KT 10SM FEW036 16/08 A3025 RMK AO2 PK WND 34027/1819 SLP239 T01610078
 
KAFK - Nebraska City, Nebraska, USA
Distance from station: S 42mi, 67km
Updated: 09/21/2018 2:35pm
Clear
Clear
 Wind from NNE
Wind: NNE 17 mph , 28 km/h, Gust: 22 mph , 35 km/h
Temperature: 66°F , 19°C
Dew Point: 41°F , 5°C
Humidity: 40%
Barometer: 30.23 inHg , 1023.7 hPa
Clouds: Clear
Visibility: 10 miles , 16 km
2018/09/21 19:35 KAFK 211935Z AUTO 02015G19KT 10SM CLR 19/05 A3023 RMK AO2 T01900049
KHNR - Harlan Muni, Iowa, USA
Distance from station: NE 43mi, 69km
Updated: 09/21/2018 2:35pm
Few Clouds
Few Clouds
 Wind from NNW
Wind: NNW 20 mph , 31 km/h, Gust: 26 mph , 43 km/h
Temperature: 63°F , 17°C
Dew Point: 45°F , 7°C
Humidity: 52%
Barometer: 30.23 inHg , 1023.7 hPa
Clouds: Few Clouds
Visibility: 10 miles , 16 km
Cloud details: Few Clouds 3900 ft
2018/09/21 19:35 KHNR 211935Z AUTO 34017G23KT 10SM FEW039 17/07 A3023 RMK AO2
 
KSDA - Shenandoah Muni, Iowa, USA
Distance from station: SE 43mi, 69km
Updated: 09/21/2018 2:35pm
Clear
Clear
 Wind from N
Wind: N 14 mph , 22 km/h, Gust: 24 mph , 39 km/h
Temperature: 64°F , 18°C
Dew Point: 46°F , 8°C
Humidity: 52%
Barometer: 30.22 inHg , 1023.4 hPa
Clouds: Clear
Visibility: 10 miles , 16 km
2018/09/21 19:35 KSDA 211935Z AUTO 35012G21KT 10SM CLR 18/08 A3022 RMK AO2
KLNK - Lincoln, Nebraska, USA
Distance from station: WSW 47mi, 76km
Updated: 09/21/2018 1:54pm
Clear
Clear
 Wind from NNW
Wind: NNW 14 mph , 22 km/h
Temperature: 66°F , 19°C
Dew Point: 45°F , 7°C
Humidity: 46%
Barometer: 30.27 inHg , 1025.1 hPa
Clouds: Clear
Visibility: 10 miles , 16 km
2018/09/21 18:54 KLNK 211854Z 34012KT 10SM CLR 19/07 A3027 RMK AO2 PK WND 35026/1804 SLP245 T01890072
 
KAIO - Atlantic, Iowa, USA
Distance from station: ENE 51mi, 82km
Updated: 09/21/2018 2:35pm
Partly cloudy
Partly cloudy
 Wind from N
Wind: N 21 mph , 33 km/h
Temperature: 63°F , 17°C
Dew Point: 46°F , 8°C
Humidity: 56%
Barometer: 30.22 inHg , 1023.4 hPa
Clouds: Partly cloudy
Visibility: 10 miles , 16 km
Cloud details: Partly cloudy 4200 ft
2018/09/21 19:35 KAIO 211935Z AUTO 36018KT 10SM SCT042 17/08 A3022 RMK AO2
KICL - Clarinda, Iowa, USA
Distance from station: ESE 60mi, 97km
Updated: 09/21/2018 2:35pm
Clear
Clear
 Wind from N
Wind: N 15 mph , 24 km/h, Gust: 24 mph , 39 km/h
Temperature: 66°F , 19°C
Dew Point: 46°F , 8°C
Humidity: 49%
Barometer: 30.23 inHg , 1023.7 hPa
Clouds: Clear
Visibility: 10 miles , 16 km
2018/09/21 19:35 KICL 211935Z AUTO 35013G21KT 10SM CLR 19/08 A3023 RMK AO2
 
KDNS - Denison, Iowa, USA
Distance from station: NNE 62mi, 100km
Updated: 09/21/2018 2:35pm
Few Clouds
Few Clouds
 Wind from NNW
Wind: NNW 17 mph , 28 km/h, Gust: 25 mph , 41 km/h
Temperature: 61°F , 16°C
Dew Point: 46°F , 8°C
Humidity: 59%
Barometer: 30.25 inHg , 1024.4 hPa
Clouds: Few Clouds
Visibility: 10 miles , 16 km
Cloud details: Few Clouds 3600 ft
2018/09/21 19:35 KDNS 211935Z AUTO 34015G22KT 10SM FEW036 16/08 A3025 RMK AO2
KADU - Audubon, Iowa, USA
Distance from station: ENE 65mi, 105km
Updated: 09/21/2018 2:35pm
Partly cloudy
Partly cloudy
 Wind from N
Wind: N 17 mph , 28 km/h, Gust: 23 mph , 37 km/h
Temperature: 63°F , 17°C
Dew Point: 46°F , 8°C
Humidity: 56%
Barometer: 30.22 inHg , 1023.4 hPa
Clouds: Partly cloudy
Visibility: 10 miles , 16 km
Cloud details: Partly cloudy 4000 ft
2018/09/21 19:35 KADU 211935Z AUTO 35015G20KT 10SM SCT040 17/08 A3022 RMK AO2
 
KOLU - Columbus Muni, Nebraska, USA
Distance from station: WNW 71mi, 115km
Updated: 09/21/2018 1:56pm
Clear
Clear
 Wind from NW
Wind: NW 14 mph , 22 km/h, Gust: 18 mph , 30 km/h
Temperature: 63°F , 17°C
Dew Point: 45°F , 7°C
Humidity: 52%
Barometer: 30.29 inHg , 1025.7 hPa
Clouds: Clear
Visibility: 10 miles , 16 km
2018/09/21 18:56 KOLU 211856Z AUTO 32012G16KT 10SM CLR 17/07 A3029 RMK AO2 SLP257 T01670067
KBIE - Beatrice Municip, Nebraska, USA
Distance from station: SSW 75mi, 120km
Updated: 09/21/2018 2:35pm
Partly cloudy
Partly cloudy
 Wind from N
Wind: N 17 mph , 28 km/h, Gust: 22 mph , 35 km/h
Temperature: 68°F , 20°C
Dew Point: 48°F , 9°C
Humidity: 49%
Barometer: 30.25 inHg , 1024.4 hPa
Clouds: Partly cloudy
Visibility: 10 miles , 16 km
Cloud details: Partly cloudy 4200 ft
2018/09/21 19:35 KBIE 211935Z AUTO 36015G19KT 10SM SCT042 20/09 A3025 RMK AO2 T02020093